| Date | Time | Temp. (oF) | Dew Point (oF) | Rel. Hum. (%) | Press. (in.) | Wind Dir. | Wind Speed (mph) | Hourly Rainfall (in.) |
|
|---|---|---|---|---|---|---|---|---|---|
| 1 | 05/14 | 00:00 | 55 | 47 | 75 | 29.58 | NW | 21 | 0.00 |
| 2 | 05/13 | 23:00 | 57 | 53 | 87 | 29.54 | WSW | 6 | 0.00 |
| 3 | 05/13 | 22:00 | 64 | 63 | 100 | 29.47 | WNW | 12 | 0.44 |
| 4 | 05/13 | 21:00 | 68 | 67 | 97 | 29.42 | W | 11 | 0.12 |
| 5 | 05/13 | 20:00 | 75 | 66 | 75 | 29.39 | NW | 0 | 0.02 |
| 6 | 05/13 | 19:00 | 76 | 63 | 66 | 29.46 | W | 3 | 0.00 |
| 7 | 05/13 | 18:00 | 77 | 66 | 70 | 29.48 | W | 5 | 0.00 |
| 8 | 05/13 | 17:00 | 76 | 71 | 87 | 29.48 | WSW | 4 | 0.18 |
| 9 | 05/13 | 16:00 | 73 | 71 | 94 | 29.50 | S | 4 | 0.08 |
| 10 | 05/13 | 15:00 | 76 | 70 | 82 | 29.55 | SW | 14 | 0.03 |
| 11 | 05/13 | 14:00 | 80 | 68 | 68 | 29.58 | SSW | 4 | 0.00 |
| 12 | 05/13 | 13:00 | 80 | 69 | 71 | 29.63 | SSW | 8 | 0.00 |
| 13 | 05/13 | 12:00 | 77 | 72 | 85 | 29.66 | S | 11 | 0.00 |
| 14 | 05/13 | 11:00 | 73 | 69 | 89 | 29.69 | S | 9 | 0.00 |
| 15 | 05/13 | 10:00 | 70 | 68 | 96 | 29.74 | S | 5 | 0.00 |
| 16 | 05/13 | 09:00 | 69 | 68 | 100 | 29.76 | SSE | 3 | 0.00 |
| 17 | 05/13 | 08:00 | 66 | 66 | 100 | 29.79 | SE | 1 | 0.00 |
| 18 | 05/13 | 07:00 | 65 | 64 | 100 | 29.80 | S | 0 | 0.00 |
| 19 | 05/13 | 06:00 | 64 | 63 | 100 | 29.81 | SSE | 4 | 0.04 |
| 20 | 05/13 | 05:00 | 64 | 63 | 100 | 29.83 | S | 2 | 0.05 |
| 21 | 05/13 | 04:00 | 64 | 63 | 100 | 29.85 | SE | 3 | 0.05 |
| 22 | 05/13 | 03:00 | 64 | 63 | 100 | 29.85 | NNE | 0 | 0.00 |
| 23 | 05/13 | 02:00 | 64 | 63 | 100 | 29.88 | S | 3 | 0.01 |
| 24 | 05/13 | 01:00 | 65 | 64 | 100 | 29.91 | W | 0 | 0.00 |